Strona główna
METAR-TAF:

METAR-TAF

Lotnisko :

Port lotniczy Damaszek

Damaszek, Syria

Szerokość geograficzna: 33-25N, Długość geograficzna: 036-31E, wysokość: 608 m

Aktualna obserwacja pogody

Raport powstał 1 godzina i 1 minut temu, godzina 02:00 UTC
Wiatr 4 kt od północno-północny zachód
Temperatura 17°C
Wilgotność 59%
Ciśnienie 1014 hPa
Widzialność: 7000 m

METAR: OSDI 180200Z 33004KT 7000 17/09 Q1014

czas: 06:01 (03:01 UTC)

Prognoza

Raport powstał 4 godziny i 1 minut temu, godzina 23:00 UTC
Prognoza ważna od 18 godzina 00 UTC do 19 godzina 06 UTC
Wiatr 10 kt od wschodnio-północny wschód
Widzialność: 8000 m
Mało chmury na wysokości 3000 ft
Przejściowo
od 18 godzina 09 UTC do 18 godzina 18 UTC
Wiatr 10 kt od południowy zachód
Widzialność 10 km lub więcej
Mało chmury na wysokości 3000 ft
Rozproszone chmury na wysokości 10000 ft

TAF: OSDI 172300Z 1800/1906 06010KT 8000 FEW030 TEMPO 1809/1818 22010KT 9999 FEW030 SCT100

Obserwacja i prognoza pogody dla ponad 4000 lotnisk (raport METAR i TAF).

Dostępne stacje oznaczono żółtymi i czerwonymi punktami na mapie.

Najedź kursorem aby zobaczyć nazwę stacji.

Kliknij aby zobaczyć obserwacje i prognozy pogody.

Aby zmienić mapę: kliknij na zielony przycisk z czarnym krzyżykiem, aby powiększyć; na zielony przycisk z myślnikiem, aby pomniejszyć; na zielone strzałki, aby przejść do map sąsiednich.


METAR-TAF: